sensor_id;sensor_type;location;lat;lon;timestamp;pressure;altitude;pressure_sealevel;temperature;humidity
19759;BME280;10038;42.662;23.278;2022-08-25T14:09:05;73815.56;;;27.89;47.51
19759;BME280;10038;42.662;23.278;2022-08-25T14:11:40;73818.34;;;27.99;46.55
19759;BME280;10038;42.662;23.278;2022-08-25T14:14:10;73848.19;;;28.25;45.43
19759;BME280;10038;42.662;23.278;2022-08-25T14:16:39;73873.97;;;28.47;44.62
19759;BME280;10038;42.662;23.278;2022-08-25T14:19:12;73923.91;;;28.92;44.87
19759;BME280;10038;42.662;23.278;2022-08-25T14:21:40;74031.16;;;29.85;42.10
19759;BME280;10038;42.662;23.278;2022-08-25T14:24:08;74149.13;;;30.88;39.95
19759;BME280;10038;42.662;23.278;2022-08-25T14:26:36;74048.16;;;29.99;41.11
19759;BME280;10038;42.662;23.278;2022-08-25T14:29:03;73957.72;;;29.19;43.07
19759;BME280;10038;42.662;23.278;2022-08-25T14:31:32;73867.66;;;28.44;43.76
19759;BME280;10038;42.662;23.278;2022-08-25T14:34:05;73836.63;;;28.17;45.33
19759;BME280;10038;42.662;23.278;2022-08-25T14:36:34;73816.56;;;27.97;46.62
19759;BME280;10038;42.662;23.278;2022-08-25T14:39:01;73800.16;;;27.83;46.87
19759;BME280;10038;42.662;23.278;2022-08-25T14:41:33;73800.75;;;27.84;47.38
19759;BME280;10038;42.662;23.278;2022-08-25T14:44:02;73816.56;;;27.97;46.38
19759;BME280;10038;42.662;23.278;2022-08-25T14:46:31;73809.53;;;27.91;45.86
19759;BME280;10038;42.662;23.278;2022-08-25T14:49:01;73766.25;;;27.54;47.78
19759;BME280;10038;42.662;23.278;2022-08-25T14:51:30;73748.09;;;27.38;47.85
19759;BME280;10038;42.662;23.278;2022-08-25T14:54:00;73741.34;;;27.28;48.67
19759;BME280;10038;42.662;23.278;2022-08-25T14:56:29;73726.41;;;27.20;48.27
19759;BME280;10038;42.662;23.278;2022-08-25T14:58:57;73714.28;;;27.12;48.84
19759;BME280;10038;42.662;23.278;2022-08-25T15:01:25;73717.66;;;27.12;49.11
19759;BME280;10038;42.662;23.278;2022-08-25T15:03:54;73718.22;;;27.13;49.50
19759;BME280;10038;42.662;23.278;2022-08-25T15:06:22;73747.78;;;27.33;48.51
19759;BME280;10038;42.662;23.278;2022-08-25T15:08:49;73729.94;;;27.23;48.72
19759;BME280;10038;42.662;23.278;2022-08-25T15:11:33;73737.28;;;27.24;48.79
19759;BME280;10038;42.662;23.278;2022-08-25T15:14:01;73717.06;;;27.12;49.34
19759;BME280;10038;42.662;23.278;2022-08-25T15:16:31;73695.72;;;26.88;49.98
19759;BME280;10038;42.662;23.278;2022-08-25T15:18:58;73681.41;;;26.81;50.68
19759;BME280;10038;42.662;23.278;2022-08-25T15:21:26;73633.97;;;26.40;50.92
19759;BME280;10038;42.662;23.278;2022-08-25T15:23:52;73657.38;;;26.60;51.47
19759;BME280;10038;42.662;23.278;2022-08-25T15:26:19;73629.31;;;26.36;51.67
19759;BME280;10038;42.662;23.278;2022-08-25T15:28:48;73640.72;;;26.41;51.76
19759;BME280;10038;42.662;23.278;2022-08-25T15:31:17;73630.47;;;26.37;51.85
19759;BME280;10038;42.662;23.278;2022-08-25T15:33:44;73627.56;;;26.34;52.42
19759;BME280;10038;42.662;23.278;2022-08-25T15:36:13;73632.81;;;26.39;52.58
19759;BME280;10038;42.662;23.278;2022-08-25T15:38:41;73583.41;;;25.92;52.86
19759;BME280;10038;42.662;23.278;2022-08-25T15:41:09;73632.56;;;26.34;52.92
19759;BME280;10038;42.662;23.278;2022-08-25T15:43:37;73602.69;;;26.08;53.62
19759;BME280;10038;42.662;23.278;2022-08-25T15:46:05;73620.84;;;26.24;53.24
19759;BME280;10038;42.662;23.278;2022-08-25T15:48:33;73619.38;;;26.27;53.35
19759;BME280;10038;42.662;23.278;2022-08-25T15:51:00;73614.13;;;26.23;53.52
19759;BME280;10038;42.662;23.278;2022-08-25T15:53:28;73611.19;;;26.20;53.87
19759;BME280;10038;42.662;23.278;2022-08-25T15:55:55;73560.59;;;25.72;54.65
19759;BME280;10038;42.662;23.278;2022-08-25T15:58:23;73586.03;;;25.99;54.13
19759;BME280;10038;42.662;23.278;2022-08-25T16:00:50;73568.50;;;25.84;54.28
19759;BME280;10038;42.662;23.278;2022-08-25T16:03:16;73585.16;;;25.93;54.15
19759;BME280;10038;42.662;23.278;2022-08-25T16:05:45;73584.28;;;25.97;54.37
19759;BME280;10038;42.662;23.278;2022-08-25T16:08:11;73589.53;;;26.02;54.40
19759;BME280;10038;42.662;23.278;2022-08-25T16:10:41;73585.47;;;25.98;54.79
19759;BME280;10038;42.662;23.278;2022-08-25T16:13:09;73578.72;;;25.88;54.86
19759;BME280;10038;42.662;23.278;2022-08-25T16:15:37;73569.81;;;25.77;55.65
19759;BME280;10038;42.662;23.278;2022-08-25T16:18:05;73566.16;;;25.82;55.79
19759;BME280;10038;42.662;23.278;2022-08-25T16:20:34;73569.66;;;25.85;55.13
19759;BME280;10038;42.662;23.278;2022-08-25T16:23:02;73584.59;;;25.93;55.35
19759;BME280;10038;42.662;23.278;2022-08-25T16:25:29;73584.00;;;25.92;55.44
19759;BME280;10038;42.662;23.278;2022-08-25T16:27:56;73563.25;;;25.79;55.71
19759;BME280;10038;42.662;23.278;2022-08-25T16:30:23;73556.38;;;25.75;56.04
19759;BME280;10038;42.662;23.278;2022-08-25T16:32:50;73554.63;;;25.64;56.66
19759;BME280;10038;42.662;23.278;2022-08-25T16:35:16;73510.19;;;25.26;57.17
19759;BME280;10038;42.662;23.278;2022-08-25T16:37:43;73522.59;;;25.39;57.59
19759;BME280;10038;42.662;23.278;2022-08-25T16:40:12;73463.00;;;24.88;57.96
19759;BME280;10038;42.662;23.278;2022-08-25T16:42:39;73500.09;;;25.24;58.65
19759;BME280;10038;42.662;23.278;2022-08-25T16:45:06;73498.66;;;25.18;59.33
19759;BME280;10038;42.662;23.278;2022-08-25T16:47:34;73488.13;;;25.09;59.68
19759;BME280;10038;42.662;23.278;2022-08-25T16:50:03;73473.81;;;25.02;60.53
19759;BME280;10038;42.662;23.278;2022-08-25T16:52:31;73475.88;;;24.99;60.42
19759;BME280;10038;42.662;23.278;2022-08-25T16:55:17;73453.66;;;24.80;61.05
19759;BME280;10038;42.662;23.278;2022-08-25T16:57:46;73436.13;;;24.64;61.54
19759;BME280;10038;42.662;23.278;2022-08-25T17:00:15;73433.78;;;24.62;61.64
19759;BME280;10038;42.662;23.278;2022-08-25T17:02:42;73412.19;;;24.44;62.88
19759;BME280;10038;42.662;23.278;2022-08-25T17:05:10;73401.06;;;24.34;63.69
19759;BME280;10038;42.662;23.278;2022-08-25T17:07:37;73381.81;;;24.18;64.19
19759;BME280;10038;42.662;23.278;2022-08-25T17:10:05;73375.69;;;24.17;63.81
19759;BME280;10038;42.662;23.278;2022-08-25T17:12:34;73375.66;;;24.07;64.20
19759;BME280;10038;42.662;23.278;2022-08-25T17:15:00;73370.69;;;24.08;64.37
19759;BME280;10038;42.662;23.278;2022-08-25T17:17:27;73354.34;;;23.94;65.32
19759;BME280;10038;42.662;23.278;2022-08-25T17:19:54;73343.25;;;23.84;65.95
19759;BME280;10038;42.662;23.278;2022-08-25T17:22:21;73331.28;;;23.79;66.10
19759;BME280;10038;42.662;23.278;2022-08-25T17:24:48;73341.50;;;23.83;66.51
19759;BME280;10038;42.662;23.278;2022-08-25T17:27:14;73328.66;;;23.72;66.33
19759;BME280;10038;42.662;23.278;2022-08-25T17:29:46;73320.19;;;23.69;66.36
19759;BME280;10038;42.662;23.278;2022-08-25T17:32:13;73313.19;;;23.63;66.63
19759;BME280;10038;42.662;23.278;2022-08-25T17:34:39;73309.09;;;23.60;67.27
19759;BME280;10038;42.662;23.278;2022-08-25T17:37:06;73311.59;;;23.55;67.12
19759;BME280;10038;42.662;23.278;2022-08-25T17:39:33;73304.44;;;23.56;67.33
19759;BME280;10038;42.662;23.278;2022-08-25T17:41:59;73300.66;;;23.47;67.95
19759;BME280;10038;42.662;23.278;2022-08-25T17:44:26;73292.78;;;23.45;67.69
19759;BME280;10038;42.662;23.278;2022-08-25T17:46:54;73293.06;;;23.41;68.16
19759;BME280;10038;42.662;23.278;2022-08-25T17:49:22;73266.47;;;23.13;68.26
19759;BME280;10038;42.662;23.278;2022-08-25T17:51:49;73282.97;;;23.30;69.15
19759;BME280;10038;42.662;23.278;2022-08-25T17:54:16;73277.28;;;23.27;69.52
19759;BME280;10038;42.662;23.278;2022-08-25T17:56:43;73264.44;;;23.16;70.04
19759;BME280;10038;42.662;23.278;2022-08-25T17:59:09;73265.91;;;23.13;70.41
19759;BME280;10038;42.662;23.278;2022-08-25T18:01:37;73246.94;;;23.01;70.54
19759;BME280;10038;42.662;23.278;2022-08-25T18:04:06;73238.78;;;22.94;70.73
19759;BME280;10038;42.662;23.278;2022-08-25T18:06:33;73247.38;;;22.99;71.20
19759;BME280;10038;42.662;23.278;2022-08-25T18:09:00;73255.09;;;23.08;71.08
19759;BME280;10038;42.662;23.278;2022-08-25T18:11:29;73239.06;;;22.99;71.27
19759;BME280;10038;42.662;23.278;2022-08-25T18:13:56;73232.34;;;22.88;71.33
19759;BME280;10038;42.662;23.278;2022-08-25T18:16:24;73244.03;;;22.99;71.90
19759;BME280;10038;42.662;23.278;2022-08-25T18:18:51;73245.78;;;23.00;71.88
19759;BME280;10038;42.662;23.278;2022-08-25T18:21:21;73243.88;;;22.96;71.76
19759;BME280;10038;42.662;23.278;2022-08-25T18:23:49;73239.94;;;22.95;72.59
19759;BME280;10038;42.662;23.278;2022-08-25T18:26:17;73248.41;;;22.98;73.10
19759;BME280;10038;42.662;23.278;2022-08-25T18:28:45;73230.03;;;22.86;74.42
19759;BME280;10038;42.662;23.278;2022-08-25T18:31:12;73193.28;;;22.55;75.26
19759;BME280;10038;42.662;23.278;2022-08-25T18:33:39;73201.28;;;22.59;75.29
19759;BME280;10038;42.662;23.278;2022-08-25T18:36:10;73186.13;;;22.46;75.49
19759;BME280;10038;42.662;23.278;2022-08-25T18:38:39;73166.44;;;22.31;76.34
19759;BME280;10038;42.662;23.278;2022-08-25T18:41:24;73174.59;;;22.39;76.51
19759;BME280;10038;42.662;23.278;2022-08-25T18:43:51;73169.63;;;22.29;77.22
19759;BME280;10038;42.662;23.278;2022-08-25T18:46:18;73172.56;;;22.32;77.58
19759;BME280;10038;42.662;23.278;2022-08-25T18:48:45;73160.91;;;22.22;77.54
19759;BME280;10038;42.662;23.278;2022-08-25T18:51:12;73163.22;;;22.24;77.60
19759;BME280;10038;42.662;23.278;2022-08-25T18:53:40;73149.53;;;22.17;78.25
19759;BME280;10038;42.662;23.278;2022-08-25T18:56:08;73128.53;;;21.99;79.15
19759;BME280;10038;42.662;23.278;2022-08-25T18:58:35;73104.63;;;21.78;79.14
19759;BME280;10038;42.662;23.278;2022-08-25T19:01:03;73121.81;;;21.88;79.14
19759;BME280;10038;42.662;23.278;2022-08-25T19:03:30;73118.47;;;21.88;79.51
19759;BME280;10038;42.662;23.278;2022-08-25T19:05:56;73129.56;;;21.97;79.54
19759;BME280;10038;42.662;23.278;2022-08-25T19:08:24;73120.81;;;21.90;79.13
19759;BME280;10038;42.662;23.278;2022-08-25T19:10:52;73108.09;;;21.81;79.76
19759;BME280;10038;42.662;23.278;2022-08-25T19:13:20;73044.44;;;21.24;79.98
19759;BME280;10038;42.662;23.278;2022-08-25T19:15:47;73071.09;;;21.44;80.07
19759;BME280;10038;42.662;23.278;2022-08-25T19:18:14;73088.31;;;21.64;79.85
19759;BME280;10038;42.662;23.278;2022-08-25T19:20:41;73093.81;;;21.64;80.40
19759;BME280;10038;42.662;23.278;2022-08-25T19:23:09;73085.81;;;21.59;80.45
19759;BME280;10038;42.662;23.278;2022-08-25T19:25:37;73061.50;;;21.41;80.98
19759;BME280;10038;42.662;23.278;2022-08-25T19:28:07;73067.31;;;21.46;81.63
19759;BME280;10038;42.662;23.278;2022-08-25T19:30:35;73042.97;;;21.17;81.21
19759;BME280;10038;42.662;23.278;2022-08-25T19:33:04;73080.56;;;21.55;81.01
19759;BME280;10038;42.662;23.278;2022-08-25T19:35:36;73088.91;;;21.64;80.80
19759;BME280;10038;42.662;23.278;2022-08-25T19:38:07;73082.16;;;21.54;80.44
19759;BME280;10038;42.662;23.278;2022-08-25T19:40:35;73063.81;;;21.43;80.37
19759;BME280;10038;42.662;23.278;2022-08-25T19:43:03;73015.28;;;20.98;81.80
19759;BME280;10038;42.662;23.278;2022-08-25T19:45:35;73048.50;;;21.27;83.01
19759;BME280;10038;42.662;23.278;2022-08-25T19:48:03;73041.66;;;21.24;83.18
19759;BME280;10038;42.662;23.278;2022-08-25T19:50:30;73024.19;;;21.08;83.36
19759;BME280;10038;42.662;23.278;2022-08-25T19:52:56;73046.03;;;21.23;83.03
19759;BME280;10038;42.662;23.278;2022-08-25T19:55:23;73025.69;;;21.14;83.33
19759;BME280;10038;42.662;23.278;2022-08-25T19:57:50;73030.91;;;21.09;83.53
19759;BME280;10038;42.662;23.278;2022-08-25T20:00:21;73035.00;;;21.23;83.34
19759;BME280;10038;42.662;23.278;2022-08-25T20:02:52;73053.75;;;21.32;82.94
19759;BME280;10038;42.662;23.278;2022-08-25T20:05:19;73046.78;;;21.26;83.48
19759;BME280;10038;42.662;23.278;2022-08-25T20:07:48;73032.34;;;21.15;83.15
19759;BME280;10038;42.662;23.278;2022-08-25T20:10:17;73025.78;;;21.07;83.78
19759;BME280;10038;42.662;23.278;2022-08-25T20:12:44;73018.06;;;20.98;83.50
19759;BME280;10038;42.662;23.278;2022-08-25T20:15:12;73027.69;;;21.11;83.28
19759;BME280;10038;42.662;23.278;2022-08-25T20:17:39;73025.03;;;21.04;83.03
19759;BME280;10038;42.662;23.278;2022-08-25T20:20:12;73012.53;;;20.98;83.40
19759;BME280;10038;42.662;23.278;2022-08-25T20:22:39;73029.13;;;21.08;82.68
19759;BME280;10038;42.662;23.278;2022-08-25T20:25:09;73032.94;;;21.16;82.47
19759;BME280;10038;42.662;23.278;2022-08-25T20:27:36;73004.81;;;20.89;81.77
19759;BME280;10038;42.662;23.278;2022-08-25T20:30:06;73055.66;;;21.36;82.73
19759;BME280;10038;42.662;23.278;2022-08-25T20:32:34;73054.78;;;21.30;82.40
19759;BME280;10038;42.662;23.278;2022-08-25T20:35:02;73033.53;;;21.16;83.06
19759;BME280;10038;42.662;23.278;2022-08-25T20:37:30;73028.56;;;21.07;83.08
19759;BME280;10038;42.662;23.278;2022-08-25T20:39:57;73043.28;;;21.23;82.41
19759;BME280;10038;42.662;23.278;2022-08-25T20:42:24;73055.38;;;21.31;82.69
19759;BME280;10038;42.662;23.278;2022-08-25T20:44:51;73050.28;;;21.29;83.09
19759;BME280;10038;42.662;23.278;2022-08-25T20:47:18;73045.16;;;21.27;82.56
19759;BME280;10038;42.662;23.278;2022-08-25T20:49:46;73057.25;;;21.35;82.08
19759;BME280;10038;42.662;23.278;2022-08-25T20:52:14;73050.84;;;21.29;82.74
19759;BME280;10038;42.662;23.278;2022-08-25T20:54:42;73035.13;;;21.15;82.68
19759;BME280;10038;42.662;23.278;2022-08-25T20:57:09;73037.72;;;21.13;82.40
19759;BME280;10038;42.662;23.278;2022-08-25T20:59:36;73028.84;;;21.12;82.43
19759;BME280;10038;42.662;23.278;2022-08-25T21:02:03;73033.06;;;21.09;82.64
19759;BME280;10038;42.662;23.278;2022-08-25T21:04:30;73031.03;;;21.12;82.29
19759;BME280;10038;42.662;23.278;2022-08-25T21:06:58;73023.03;;;21.07;83.60
19759;BME280;10038;42.662;23.278;2022-08-25T21:09:26;73023.28;;;21.03;83.07
19759;BME280;10038;42.662;23.278;2022-08-25T21:11:56;72965.63;;;20.53;83.45
19759;BME280;10038;42.662;23.278;2022-08-25T21:14:24;72993.31;;;20.82;83.61
19759;BME280;10038;42.662;23.278;2022-08-25T21:16:51;72972.91;;;20.64;84.46
19759;BME280;10038;42.662;23.278;2022-08-25T21:19:20;72966.34;;;20.56;85.04
19759;BME280;10038;42.662;23.278;2022-08-25T21:21:48;72982.66;;;20.70;84.12
19759;BME280;10038;42.662;23.278;2022-08-25T21:24:16;72967.09;;;20.59;84.74
19759;BME280;10038;42.662;23.278;2022-08-25T21:26:46;72962.28;;;20.52;84.93
19759;BME280;10038;42.662;23.278;2022-08-25T21:29:16;72973.78;;;20.60;84.33
19759;BME280;10038;42.662;23.278;2022-08-25T21:31:44;72960.53;;;20.51;85.96
19759;BME280;10038;42.662;23.278;2022-08-25T21:34:11;72956.16;;;20.42;85.97
19759;BME280;10038;42.662;23.278;2022-08-25T21:36:39;72949.63;;;20.44;85.63
19759;BME280;10038;42.662;23.278;2022-08-25T21:39:07;72956.31;;;20.45;85.45
19759;BME280;10038;42.662;23.278;2022-08-25T21:41:34;72951.97;;;20.46;85.35
19759;BME280;10038;42.662;23.278;2022-08-25T21:44:02;72948.47;;;20.43;85.21
19759;BME280;10038;42.662;23.278;2022-08-25T21:46:31;72962.72;;;20.50;84.45
19759;BME280;10038;42.662;23.278;2022-08-25T21:48:59;72958.78;;;20.49;84.62
19759;BME280;10038;42.662;23.278;2022-08-25T21:51:30;72949.63;;;20.44;85.44
19759;BME280;10038;42.662;23.278;2022-08-25T21:54:00;72954.56;;;20.43;86.00
19759;BME280;10038;42.662;23.278;2022-08-25T21:56:35;72941.16;;;20.32;86.07
19759;BME280;10038;42.662;23.278;2022-08-25T21:59:04;72896.16;;;19.90;87.34
19759;BME280;10038;42.662;23.278;2022-08-25T22:01:33;72927.16;;;20.20;86.75
19759;BME280;10038;42.662;23.278;2022-08-25T22:04:00;72919.31;;;20.18;86.29
19759;BME280;10038;42.662;23.278;2022-08-25T22:06:27;72934.75;;;20.26;85.54
19759;BME280;10038;42.662;23.278;2022-08-25T22:08:54;72937.09;;;20.28;85.78
19759;BME280;10038;42.662;23.278;2022-08-25T22:11:21;72883.22;;;19.86;85.79
19759;BME280;10038;42.662;23.278;2022-08-25T22:13:50;72919.03;;;20.13;84.83
19759;BME280;10038;42.662;23.278;2022-08-25T22:16:17;72936.34;;;20.25;84.66
19759;BME280;10038;42.662;23.278;2022-08-25T22:18:46;72926.66;;;20.29;84.48
19759;BME280;10038;42.662;23.278;2022-08-25T22:21:14;72926.00;;;20.19;85.15
19759;BME280;10038;42.662;23.278;2022-08-25T22:23:42;72915.09;;;20.12;84.73
19759;BME280;10038;42.662;23.278;2022-08-25T22:26:09;72934.75;;;20.26;84.91
19759;BME280;10038;42.662;23.278;2022-08-25T22:28:35;72907.38;;;20.02;86.09
19759;BME280;10038;42.662;23.278;2022-08-25T22:31:03;72900.56;;;19.99;85.94
19759;BME280;10038;42.662;23.278;2022-08-25T22:33:32;72919.19;;;20.15;85.05
19759;BME280;10038;42.662;23.278;2022-08-25T22:36:00;72912.63;;;20.07;86.09
19759;BME280;10038;42.662;23.278;2022-08-25T22:38:27;72901.13;;;19.99;86.35
19759;BME280;10038;42.662;23.278;2022-08-25T22:40:53;72906.94;;;20.05;86.25
19759;BME280;10038;42.662;23.278;2022-08-25T22:43:20;72916.28;;;20.13;86.13
19759;BME280;10038;42.662;23.278;2022-08-25T22:45:47;72875.53;;;19.77;87.04
19759;BME280;10038;42.662;23.278;2022-08-25T22:48:14;72902.28;;;20.00;86.23
19759;BME280;10038;42.662;23.278;2022-08-25T22:50:41;72901.13;;;19.99;85.98
19759;BME280;10038;42.662;23.278;2022-08-25T22:53:10;72890.81;;;19.93;86.71
19759;BME280;10038;42.662;23.278;2022-08-25T22:55:41;72834.94;;;19.45;87.16
19759;BME280;10038;42.662;23.278;2022-08-25T22:58:09;72891.09;;;19.88;87.48
19759;BME280;10038;42.662;23.278;2022-08-25T23:00:37;72837.09;;;19.44;87.15
19759;BME280;10038;42.662;23.278;2022-08-25T23:03:04;72881.50;;;19.85;87.08
19759;BME280;10038;42.662;23.278;2022-08-25T23:05:31;72898.78;;;19.97;85.82
19759;BME280;10038;42.662;23.278;2022-08-25T23:07:59;72889.91;;;19.87;86.36
19759;BME280;10038;42.662;23.278;2022-08-25T23:10:27;72895.72;;;19.92;86.04
19759;BME280;10038;42.662;23.278;2022-08-25T23:12:54;72890.66;;;19.90;86.27
19759;BME280;10038;42.662;23.278;2022-08-25T23:15:21;72865.47;;;19.66;85.59
19759;BME280;10038;42.662;23.278;2022-08-25T23:17:47;72899.81;;;19.96;85.27
19759;BME280;10038;42.662;23.278;2022-08-25T23:20:15;72889.91;;;19.87;85.69
19759;BME280;10038;42.662;23.278;2022-08-25T23:22:59;72878.59;;;19.82;86.31
19759;BME280;10038;42.662;23.278;2022-08-25T23:25:27;72883.50;;;19.82;85.66
19759;BME280;10038;42.662;23.278;2022-08-25T23:27:54;72869.69;;;19.72;86.05
19759;BME280;10038;42.662;23.278;2022-08-25T23:30:21;72876.38;;;19.73;85.72
19759;BME280;10038;42.662;23.278;2022-08-25T23:32:47;72870.44;;;19.75;86.36
19759;BME280;10038;42.662;23.278;2022-08-25T23:35:14;72880.16;;;19.81;85.79
19759;BME280;10038;42.662;23.278;2022-08-25T23:37:41;72871.59;;;19.76;86.61
19759;BME280;10038;42.662;23.278;2022-08-25T23:40:09;72871.28;;;19.71;86.37
19759;BME280;10038;42.662;23.278;2022-08-25T23:42:37;72861.13;;;19.67;86.67
19759;BME280;10038;42.662;23.278;2022-08-25T23:45:05;72849.16;;;19.52;88.16
19759;BME280;10038;42.662;23.278;2022-08-25T23:47:32;72842.19;;;19.46;88.23
19759;BME280;10038;42.662;23.278;2022-08-25T23:49:58;72833.47;;;19.38;88.29
19759;BME280;10038;42.662;23.278;2022-08-25T23:52:25;72830.53;;;19.36;88.57
19759;BME280;10038;42.662;23.278;2022-08-25T23:54:52;72823.53;;;19.30;88.83
19759;BME280;10038;42.662;23.278;2022-08-25T23:57:19;72821.63;;;19.26;89.20
19759;BME280;10038;42.662;23.278;2022-08-25T23:59:47;72810.00;;;19.16;89.22
